Time;durP1;ratioP1;P1;durP2;ratioP2;P2;SDS_P1;SDS_P2;PMS_P1;PMS_P2;Temp;Humidity;BMP_temperature;BMP_pressure;BME280_temperature;BME280_humidity;BME280_pressure;Samples;Min_cycle;Max_cycle;Signal;HPM_P1;HPM_P2
2022/01/19 00:01:45;;;;;;;52.28;18.70;;;;;;;1.46;100.00;103227.22;10423312;28;20050;-56
2022/01/19 00:06:48;;;;;;;42.03;17.98;;;;;;;1.60;100.00;103217.16;10423637;28;20107;-57
2022/01/19 00:11:50;;;;;;;70.13;20.10;;;;;;;1.44;100.00;103212.53;10422271;28;20045;-56
2022/01/19 00:16:52;;;;;;;53.28;18.42;;;;;;;1.23;100.00;103215.56;10422561;28;20517;-54
2022/01/19 00:21:55;;;;;;;60.13;20.73;;;;;;;1.33;100.00;103219.19;10421762;28;20516;-54
2022/01/19 00:26:57;;;;;;;47.15;14.50;;;;;;;1.33;100.00;103198.53;10421628;28;20045;-56
2022/01/19 00:31:59;;;;;;;41.85;18.33;;;;;;;1.23;100.00;103171.69;10421673;28;20049;-57
2022/01/19 00:37:02;;;;;;;66.22;20.23;;;;;;;1.33;100.00;103139.16;10421384;28;20060;-56
2022/01/19 00:42:04;;;;;;;55.38;18.35;;;;;;;1.35;100.00;103120.31;10421176;28;20058;-55
2022/01/19 00:47:07;;;;;;;50.90;19.00;;;;;;;1.26;100.00;103123.59;10420848;28;20486;-55
2022/01/19 00:52:13;;;;;;;73.50;20.95;;;;;;;1.57;100.00;103129.28;10420029;28;20045;-56
2022/01/19 00:57:15;;;;;;;51.35;18.92;;;;;;;1.49;100.00;103123.97;10421172;28;20049;-55
2022/01/19 01:02:18;;;;;;;53.95;19.05;;;;;;;1.76;100.00;103134.78;10420359;28;20050;-55
2022/01/19 01:07:20;;;;;;;56.33;18.90;;;;;;;1.66;100.00;103134.63;10435488;28;20108;-53
2022/01/19 01:12:31;;;;;;;49.88;18.92;;;;;;;1.60;100.00;103113.88;10419992;28;20057;-55
2022/01/19 01:22:54;;;;;;;60.93;19.77;;;;;;;2.00;100.00;103085.19;10419532;28;20056;-54
2022/01/19 01:27:57;;;;;;;64.88;19.35;;;;;;;1.99;100.00;103074.00;10420105;28;20339;-55
2022/01/19 01:32:59;;;;;;;51.25;17.67;;;;;;;1.82;100.00;103059.97;10419013;28;20405;-55
2022/01/19 01:38:02;;;;;;;59.53;18.98;;;;;;;2.01;100.00;103049.06;10418740;28;20054;-52
2022/01/19 01:43:08;;;;;;;47.40;17.20;;;;;;;2.03;100.00;103031.88;10433817;28;20087;-55
2022/01/19 01:48:17;;;;;;;59.67;18.50;;;;;;;2.09;100.00;103020.75;10418713;28;20052;-54
2022/01/19 01:53:28;;;;;;;88.65;22.55;;;;;;;1.92;100.00;103033.44;10433046;28;20045;-57
2022/01/19 01:58:33;;;;;;;64.45;18.13;;;;;;;1.89;100.00;103023.06;10418682;28;20482;-57
2022/01/19 02:03:39;;;;;;;59.00;19.55;;;;;;;2.02;100.00;103018.94;10417980;28;20053;-58
2022/01/19 02:08:47;;;;;;;67.10;22.02;;;;;;;1.98;100.00;102988.72;10417825;28;20141;-56
2022/01/19 02:24:44;;;;;;;61.58;20.58;;;;;;;1.92;100.00;102974.00;10417647;28;20051;-56
2022/01/19 02:40:30;;;;;;;73.95;22.98;;;;;;;1.37;100.00;102904.38;10418133;28;20045;-55
2022/01/19 02:50:56;;;;;;;38.78;16.38;;;;;;;1.37;100.00;102862.22;10416766;28;20072;-56
2022/01/19 02:55:58;;;;;;;64.05;23.38;;;;;;;1.19;100.00;102837.84;10416417;28;20068;-53
2022/01/19 03:08:41;;;;;;;37.88;15.75;;;;;;;0.99;100.00;102827.25;10416173;28;20076;-53
2022/01/19 03:11:50;;;;;;;52.20;17.13;;;;;;;0.86;100.00;102817.63;10415675;28;20052;-57
2022/01/19 03:16:52;;;;;;;40.95;15.70;;;;;;;0.96;100.00;102805.69;10415340;28;20049;-55
2022/01/19 03:21:55;;;;;;;69.43;20.77;;;;;;;0.83;100.00;102789.19;10414950;28;20072;-52
2022/01/19 03:26:57;;;;;;;50.88;19.60;;;;;;;0.79;100.00;102779.66;10414560;28;20054;-54
2022/01/19 03:32:00;;;;;;;49.30;19.63;;;;;;;0.80;100.00;102771.94;10414902;28;20049;-54
2022/01/19 03:37:03;;;;;;;51.10;18.60;;;;;;;0.70;100.00;102746.88;10415233;28;20052;-55
2022/01/19 03:42:06;;;;;;;34.95;15.50;;;;;;;0.60;100.00;102734.69;10429630;28;20485;-55
2022/01/19 03:47:09;;;;;;;43.30;18.80;;;;;;;0.47;100.00;102728.47;10414904;28;20054;-53
2022/01/19 03:52:11;;;;;;;51.47;18.55;;;;;;;0.33;100.00;102731.69;10414817;28;20057;-55
2022/01/19 03:57:13;;;;;;;35.53;14.35;;;;;;;0.50;100.00;102739.69;10413437;28;20132;-50
2022/01/19 04:02:16;;;;;;;31.73;13.55;;;;;;;0.33;100.00;102746.31;10415259;28;20057;-55
2022/01/19 04:07:18;;;;;;;45.67;15.57;;;;;;;0.55;100.00;102753.53;10414995;28;20091;-57
2022/01/19 04:12:41;;;;;;;30.30;13.80;;;;;;;0.57;100.00;102765.56;10414527;28;20045;-56
2022/01/19 04:17:51;;;;;;;32.42;13.90;;;;;;;0.46;100.00;102747.38;10427208;28;20045;-57
2022/01/19 04:22:53;;;;;;;43.03;18.00;;;;;;;0.38;100.00;102733.50;10414554;28;20061;-53
2022/01/19 04:27:56;;;;;;;36.83;15.73;;;;;;;0.42;100.00;102723.28;10418353;28;20049;-54
2022/01/19 04:38:42;;;;;;;33.00;14.55;;;;;;;0.49;100.00;102698.47;10421247;28;20050;-53
2022/01/19 05:15:06;;;;;;;48.92;22.58;;;;;;;1.12;100.00;102673.50;10420688;28;20065;-53
2022/01/19 05:20:13;;;;;;;45.67;24.33;;;;;;;1.14;100.00;102689.00;10420159;28;20049;-50
2022/01/19 05:25:15;;;;;;;56.42;25.63;;;;;;;1.21;100.00;102685.63;10419291;28;20095;-55
2022/01/19 05:30:18;;;;;;;59.67;27.05;;;;;;;1.26;100.00;102673.66;10418861;28;20492;-56
2022/01/19 05:35:20;;;;;;;46.15;22.90;;;;;;;1.47;100.00;102683.38;10418961;28;20053;-56
2022/01/19 05:40:22;;;;;;;59.05;26.27;;;;;;;1.63;100.00;102676.63;10417969;28;20050;-52
2022/01/19 05:45:25;;;;;;;59.42;29.30;;;;;;;1.41;100.00;102665.22;10418619;28;20065;-57
2022/01/19 05:50:28;;;;;;;68.18;32.45;;;;;;;1.41;100.00;102658.38;10418271;28;20417;-53
2022/01/19 05:55:30;;;;;;;75.00;32.20;;;;;;;1.58;100.00;102653.38;10418572;28;20397;-53
2022/01/19 06:00:32;;;;;;;80.03;33.50;;;;;;;1.62;100.00;102654.25;10418205;28;20602;-55
2022/01/19 06:05:35;;;;;;;76.43;34.03;;;;;;;1.49;100.00;102659.28;10418057;28;20107;-58
2022/01/19 06:10:43;;;;;;;93.60;36.72;;;;;;;1.71;100.00;102648.31;10417761;28;20045;-55
2022/01/19 06:15:46;;;;;;;82.57;34.67;;;;;;;1.57;100.00;102651.63;10417346;28;20393;-57
2022/01/19 06:20:49;;;;;;;80.10;35.25;;;;;;;1.63;100.00;102640.47;10417254;28;20502;-55
2022/01/19 06:25:53;;;;;;;78.35;35.03;;;;;;;1.66;100.00;102633.66;10416949;28;20417;-54
2022/01/19 06:30:55;;;;;;;79.55;35.00;;;;;;;1.75;100.00;102630.28;10416802;28;20060;-54
2022/01/19 06:35:57;;;;;;;69.63;31.27;;;;;;;1.72;100.00;102619.91;10416702;28;20053;-54
2022/01/19 06:41:00;;;;;;;85.03;37.03;;;;;;;1.69;100.00;102612.13;10416895;28;20045;-55
2022/01/19 06:46:02;;;;;;;86.45;37.47;;;;;;;1.85;100.00;102595.94;10416533;28;20046;-55
2022/01/19 06:51:05;;;;;;;83.30;36.58;;;;;;;1.78;100.00;102598.44;10415870;28;20050;-57
2022/01/19 06:56:07;;;;;;;88.30;38.38;;;;;;;1.72;100.00;102590.66;10416086;28;20041;-56
2022/01/19 07:01:09;;;;;;;81.32;37.95;;;;;;;1.78;100.00;102596.75;10431230;28;20451;-58
2022/01/19 07:06:12;;;;;;;74.47;36.97;;;;;;;1.77;100.00;102576.06;10415851;28;20054;-58
2022/01/19 07:11:14;;;;;;;49.90;24.42;;;;;;;1.67;100.00;102585.44;10415491;28;20046;-55
2022/01/19 07:16:17;;;;;;;70.50;31.63;;;;;;;1.77;100.00;102568.31;10416195;28;20055;-55
2022/01/19 07:21:20;;;;;;;62.67;31.45;;;;;;;1.86;100.00;102563.19;10415501;28;20045;-52
2022/01/19 07:26:22;;;;;;;50.80;28.58;;;;;;;1.56;100.00;102551.78;10414439;28;20057;-55
2022/01/19 07:31:24;;;;;;;60.17;26.20;;;;;;;1.76;100.00;102543.34;10415263;28;20060;-55
2022/01/19 07:36:29;;;;;;;51.08;25.45;;;;;;;1.68;100.00;102545.84;10415041;28;20095;-53
2022/01/19 07:41:31;;;;;;;50.40;24.27;;;;;;;1.72;100.00;102547.63;10415193;28;20054;-56
2022/01/19 07:46:33;;;;;;;47.78;24.27;;;;;;;1.92;100.00;102555.50;10414912;28;20069;-51
2022/01/19 07:51:36;;;;;;;51.25;25.02;;;;;;;2.17;100.00;102551.34;10415048;28;20054;-56
2022/01/19 07:56:38;;;;;;;46.13;26.13;;;;;;;1.74;100.00;102545.91;10415178;28;20045;-55
2022/01/19 08:01:40;;;;;;;49.10;24.23;;;;;;;1.92;100.00;102550.34;10417602;28;20060;-53
2022/01/19 08:06:43;;;;;;;48.08;25.65;;;;;;;1.89;100.00;102536.53;10422541;28;20069;-57
2022/01/19 08:11:45;;;;;;;56.00;28.13;;;;;;;1.95;100.00;102537.44;10437562;28;20053;-56
2022/01/19 08:16:49;;;;;;;51.00;27.58;;;;;;;1.63;100.00;102535.50;10437662;28;20075;-55
2022/01/19 08:21:52;;;;;;;42.83;23.75;;;;;;;1.97;100.00;102519.38;10422040;28;20049;-56
2022/01/19 08:26:55;;;;;;;44.13;24.17;;;;;;;1.77;100.00;102520.09;10421743;28;20057;-53
2022/01/19 08:31:58;;;;;;;51.03;26.58;;;;;;;2.00;100.00;102509.91;10421609;28;20478;-55
2022/01/19 08:37:20;;;;;;;36.70;20.65;;;;;;;2.04;100.00;102506.47;10422374;28;20103;-55
2022/01/19 08:42:23;;;;;;;26.50;13.55;;;;;;;2.03;100.00;102498.72;10421475;28;20051;-55
2022/01/19 08:47:27;;;;;;;27.08;14.20;;;;;;;1.84;100.00;102501.19;10421976;28;20049;-56
2022/01/19 08:52:29;;;;;;;20.08;11.07;;;;;;;1.84;100.00;102493.44;10421155;28;20168;-58
2022/01/19 08:57:31;;;;;;;24.08;11.45;;;;;;;2.04;100.00;102483.22;10419431;28;20052;-58
2022/01/19 09:02:34;;;;;;;21.88;13.82;;;;;;;2.09;100.00;102485.00;10420556;28;20063;-58
2022/01/19 09:07:37;;;;;;;29.88;14.05;;;;;;;2.04;100.00;102470.31;10420494;28;20111;-55
2022/01/19 09:12:40;;;;;;;21.55;13.40;;;;;;;2.06;100.00;102469.47;10420194;28;20049;-58
2022/01/19 09:17:42;;;;;;;20.35;12.43;;;;;;;1.96;100.00;102456.50;10419800;28;20057;-53
2022/01/19 09:22:45;;;;;;;22.60;12.27;;;;;;;2.02;100.00;102464.28;10419639;28;20099;-55
2022/01/19 09:27:48;;;;;;;17.05;11.13;;;;;;;2.24;100.00;102454.03;10419391;28;20490;-56
2022/01/19 09:33:10;;;;;;;23.92;12.00;;;;;;;2.42;100.00;102451.53;10419711;28;20053;-56
2022/01/19 09:38:13;;;;;;;42.20;28.50;;;;;;;2.32;100.00;102446.28;10418993;28;20053;-58
2022/01/19 09:43:17;;;;;;;48.28;31.08;;;;;;;2.07;100.00;102437.59;10418839;28;20061;-56
2022/01/19 09:48:20;;;;;;;53.38;34.58;;;;;;;2.30;100.00;102437.69;10418967;28;20049;-58
2022/01/19 09:53:23;;;;;;;45.72;30.23;;;;;;;2.42;100.00;102417.91;10418646;28;20061;-57
2022/01/19 09:58:25;;;;;;;50.90;32.53;;;;;;;2.66;100.00;102405.03;10418209;28;20045;-56
2022/01/19 10:03:30;;;;;;;41.50;27.77;;;;;;;2.58;100.00;102402.44;10418568;28;20045;-57
2022/01/19 10:08:38;;;;;;;42.95;27.92;;;;;;;2.66;100.00;102392.97;10433131;28;20415;-54
2022/01/19 10:19:34;;;;;;;48.92;28.80;;;;;;;2.87;100.00;102397.25;10418004;28;20057;-56
2022/01/19 10:24:46;;;;;;;41.42;26.08;;;;;;;3.03;100.00;102397.28;10412113;28;20053;-57
2022/01/19 10:29:51;;;;;;;46.80;28.85;;;;;;;2.71;100.00;102382.63;10418265;28;20050;-59
2022/01/19 10:34:54;;;;;;;44.80;28.80;;;;;;;3.11;100.00;102373.13;10417468;28;20057;-58
2022/01/19 10:40:00;;;;;;;47.15;28.98;;;;;;;3.23;100.00;102358.44;10417069;28;20049;-56
2022/01/19 10:45:07;;;;;;;43.35;27.00;;;;;;;3.31;100.00;102354.09;10417014;28;20049;-58
2022/01/19 10:50:13;;;;;;;130.95;54.28;;;;;;;3.19;100.00;102348.94;10460614;28;20053;-57
2022/01/19 10:55:25;;;;;;;82.68;33.08;;;;;;;3.39;100.00;102349.75;10454060;28;20041;-57
2022/01/19 11:00:31;;;;;;;262.02;101.93;;;;;;;3.34;100.00;102331.66;10457254;28;20056;-58
2022/01/19 11:06:00;;;;;;;536.35;308.75;;;;;;;3.20;100.00;102322.22;10457225;28;20516;-58
2022/01/19 11:11:03;;;;;;;410.55;387.77;;;;;;;3.14;100.00;102311.03;10457555;28;20041;-58
2022/01/19 11:16:06;;;;;;;486.17;459.70;;;;;;;3.52;100.00;102299.66;10456863;28;20131;-57
2022/01/19 11:21:10;;;;;;;245.13;222.15;;;;;;;3.57;100.00;102294.47;10456849;28;20079;-58
2022/01/19 11:26:16;;;;;;;367.27;100.95;;;;;;;3.51;100.00;102290.19;10455889;28;20057;-59
2022/01/19 11:31:38;;;;;;;37.35;26.30;;;;;;;3.49;100.00;102278.09;10456726;28;20132;-56
2022/01/19 11:36:42;;;;;;;48.97;30.95;;;;;;;3.22;100.00;102279.91;10459332;28;20413;-59
2022/01/19 11:41:51;;;;;;;48.17;28.77;;;;;;;3.35;100.00;102260.88;10464875;28;20091;-57
2022/01/19 11:46:55;;;;;;;44.67;27.85;;;;;;;3.18;100.00;102257.50;10464141;28;20049;-59
2022/01/19 11:51:57;;;;;;;38.85;26.17;;;;;;;3.56;100.00;102250.44;10466096;28;20076;-55
2022/01/19 11:56:59;;;;;;;40.08;26.25;;;;;;;3.64;100.00;102239.16;10464248;28;20511;-56
2022/01/19 12:02:22;;;;;;;45.08;29.02;;;;;;;3.41;100.00;102217.72;10464010;28;20401;-57
2022/01/19 12:07:58;;;;;;;48.83;30.63;;;;;;;3.54;100.00;102201.25;10464397;28;20124;-56
2022/01/19 12:18:47;;;;;;;48.88;30.63;;;;;;;3.42;100.00;102173.69;10463559;28;20049;-54
2022/01/19 12:23:50;;;;;;;40.33;25.88;;;;;;;3.67;100.00;102165.78;10463337;28;20128;-58
2022/01/19 12:28:54;;;;;;;51.50;30.85;;;;;;;3.44;100.00;102160.75;10445632;28;20068;-58
2022/01/19 12:34:02;;;;;;;49.80;30.95;;;;;;;3.50;100.00;102150.34;10464679;28;20041;-56
2022/01/19 12:39:24;;;;;;;52.50;30.27;;;;;;;3.55;100.00;102148.59;10462554;28;20049;-57
2022/01/19 12:44:35;;;;;;;;;;;;;;;3.63;100.00;102131.28;10462557;28;20052;-58
2022/01/19 12:49:38;;;;;;;50.22;31.60;;;;;;;3.88;100.00;102120.72;10462337;28;19920;-57
2022/01/19 12:54:40;;;;;;;54.38;31.92;;;;;;;3.60;100.00;102118.34;10461963;28;20047;-54
2022/01/19 12:59:44;;;;;;;48.85;30.83;;;;;;;3.90;100.00;102095.63;10461919;28;20056;-56
2022/01/19 13:04:48;;;;;;;47.47;29.33;;;;;;;3.81;100.00;102093.13;10461628;28;20381;-57
2022/01/19 13:10:24;;;;;;;52.13;33.85;;;;;;;4.08;100.00;102074.75;10461582;28;20049;-58
2022/01/19 13:15:44;;;;;;;48.10;30.65;;;;;;;4.01;100.00;102077.41;10461052;28;20049;-58
2022/01/19 13:20:52;;;;;;;45.22;31.40;;;;;;;3.93;100.00;102061.06;10461435;28;20045;-59
2022/01/19 13:25:57;;;;;;;49.03;33.10;;;;;;;3.93;100.00;102051.56;10459877;28;20063;-56
2022/01/19 13:31:12;;;;;;;44.00;30.15;;;;;;;4.01;100.00;102033.34;10460929;28;20056;-57
2022/01/19 13:36:15;;;;;;;47.90;32.53;;;;;;;3.80;100.00;102024.94;10460378;28;20488;-58
2022/01/19 13:41:17;;;;;;;51.58;31.15;;;;;;;4.09;100.00;102016.00;10459662;28;20053;-54
2022/01/19 13:46:26;;;;;;;53.95;34.05;;;;;;;4.00;100.00;102008.31;10460306;28;20060;-59
2022/01/19 13:51:30;;;;;;;49.55;32.80;;;;;;;3.93;100.00;102014.44;10460563;28;20051;-57
2022/01/19 13:56:35;;;;;;;49.80;32.60;;;;;;;4.07;100.00;102003.06;10459759;28;20076;-56
2022/01/19 14:01:49;;;;;;;55.55;33.90;;;;;;;4.00;100.00;101988.44;10457460;28;20056;-56
2022/01/19 14:06:52;;;;;;;61.67;37.35;;;;;;;4.02;100.00;101984.09;10459367;28;20057;-56
2022/01/19 14:12:01;;;;;;;50.95;33.92;;;;;;;3.93;100.00;101978.16;10458993;28;20405;-57
2022/01/19 14:17:06;;;;;;;62.58;35.88;;;;;;;3.91;100.00;101968.66;10459264;28;20056;-57
2022/01/19 14:22:20;;;;;;;59.67;39.17;;;;;;;3.90;100.00;101960.91;10455619;28;20409;-58
2022/01/19 14:27:26;;;;;;;55.90;36.33;;;;;;;3.80;100.00;101957.56;10459254;28;20059;-57
2022/01/19 14:32:48;;;;;;;60.50;39.97;;;;;;;3.73;100.00;101945.53;10456012;28;20543;-58
2022/01/19 14:38:18;;;;;;;62.92;37.15;;;;;;;3.90;100.00;101937.56;10455666;28;20408;-55
2022/01/19 14:43:25;;;;;;;59.28;39.25;;;;;;;4.06;100.00;101926.16;10456452;28;20069;-57
2022/01/19 14:48:35;;;;;;;55.97;35.55;;;;;;;4.10;100.00;101916.59;10457799;28;20053;-57
2022/01/19 14:53:37;;;;;;;62.10;36.53;;;;;;;3.80;100.00;101936.84;10457509;28;20047;-57
2022/01/19 14:58:39;;;;;;;59.10;33.75;;;;;;;3.93;100.00;101934.97;10457393;28;20056;-55
2022/01/19 15:03:43;;;;;;;58.03;38.05;;;;;;;3.92;100.00;101951.41;10455937;28;20053;-59
2022/01/19 15:08:46;;;;;;;49.25;32.75;;;;;;;3.87;100.00;101933.31;10457503;28;20053;-57
2022/01/19 15:13:48;;;;;;;53.33;34.42;;;;;;;3.83;100.00;101929.03;10456676;28;20045;-58
2022/01/19 15:18:51;;;;;;;59.88;35.65;;;;;;;3.84;100.00;101925.56;10456687;28;20049;-56
2022/01/19 15:23:53;;;;;;;62.00;36.97;;;;;;;3.81;100.00;101938.53;10456962;28;20047;-56
2022/01/19 15:28:56;;;;;;;65.55;39.45;;;;;;;3.65;100.00;101939.59;10455531;28;20045;-56
2022/01/19 15:33:59;;;;;;;56.38;36.38;;;;;;;3.74;100.00;101955.03;10456256;28;20076;-58
2022/01/19 15:39:06;;;;;;;66.45;40.65;;;;;;;3.90;100.00;101930.69;10456407;28;20053;-59
2022/01/19 15:44:08;;;;;;;68.97;40.25;;;;;;;3.74;100.00;101941.22;10456828;28;20053;-57
2022/01/19 15:49:11;;;;;;;69.03;38.45;;;;;;;3.71;100.00;101935.19;10456649;28;20410;-58
2022/01/19 15:54:16;;;;;;;69.03;42.05;;;;;;;3.73;100.00;101937.75;10455967;28;20045;-57
2022/01/19 15:59:19;;;;;;;81.38;45.90;;;;;;;3.78;100.00;101938.56;10455662;28;20049;-59
2022/01/19 16:04:21;;;;;;;67.30;40.80;;;;;;;3.72;100.00;101936.91;10455380;28;20053;-59
2022/01/19 16:09:24;;;;;;;73.60;45.55;;;;;;;3.75;100.00;101953.28;10455790;28;20057;-55
2022/01/19 16:14:26;;;;;;;89.95;52.38;;;;;;;3.69;100.00;101949.03;10455444;28;20045;-57
2022/01/19 16:19:29;;;;;;;80.72;45.63;;;;;;;3.75;100.00;101954.19;10455596;28;20048;-58
2022/01/19 16:29:53;;;;;;;79.95;47.67;;;;;;;3.87;100.00;101963.53;10463242;28;20045;-55
2022/01/19 16:34:55;;;;;;;75.93;41.03;;;;;;;3.82;100.00;101970.50;10462704;28;20489;-59
2022/01/19 16:39:58;;;;;;;63.20;32.00;;;;;;;3.88;100.00;101963.53;10462647;28;20063;-59
2022/01/19 16:45:20;;;;;;;60.22;32.53;;;;;;;3.92;100.00;101969.53;10463129;28;20106;-60
2022/01/19 16:50:22;;;;;;;83.05;37.92;;;;;;;3.83;100.00;101967.91;10462299;28;20048;-57
2022/01/19 16:55:26;;;;;;;69.03;35.50;;;;;;;3.98;100.00;101963.41;10462288;28;20085;-59
2022/01/19 17:00:28;;;;;;;73.28;35.00;;;;;;;3.99;100.00;101966.00;10461819;28;20052;-58
2022/01/19 17:05:30;;;;;;;74.72;39.97;;;;;;;3.97;100.00;101967.75;10462175;28;20061;-59
2022/01/19 17:10:33;;;;;;;66.32;35.30;;;;;;;3.94;100.00;101992.84;10461631;28;20055;-55
2022/01/19 17:15:41;;;;;;;64.85;36.70;;;;;;;4.03;100.00;101992.72;10460091;28;20067;-55
2022/01/19 17:20:44;;;;;;;74.88;37.22;;;;;;;4.02;100.00;101993.63;10461815;28;20045;-55
2022/01/19 17:25:46;;;;;;;81.15;40.28;;;;;;;4.11;100.00;102001.28;10460834;28;20048;-58
2022/01/19 17:30:49;;;;;;;75.45;36.10;;;;;;;4.16;100.00;101998.66;10461219;28;20049;-57
2022/01/19 17:35:51;;;;;;;64.85;36.20;;;;;;;4.20;100.00;101989.94;10459443;28;20049;-54
2022/01/19 17:40:54;;;;;;;79.57;42.78;;;;;;;4.24;100.00;101986.44;10459167;28;20135;-58
2022/01/19 17:46:39;;;;;;;77.60;43.40;;;;;;;4.33;100.00;101995.84;10462013;28;20392;-57
2022/01/19 17:56:37;;;;;;;75.85;41.20;;;;;;;4.35;100.00;101992.34;10459912;28;20055;-54
2022/01/19 18:01:39;;;;;;;88.07;43.67;;;;;;;4.40;100.00;101992.28;10460020;28;20049;-58
2022/01/19 18:06:42;;;;;;;74.82;40.50;;;;;;;4.52;100.00;101999.91;10459748;28;20099;-60
2022/01/19 18:11:45;;;;;;;81.45;42.10;;;;;;;4.59;100.00;101998.97;10459171;28;20045;-59
2022/01/19 18:16:47;;;;;;;88.88;41.83;;;;;;;4.65;100.00;102013.59;10458721;28;20051;-58
2022/01/19 18:21:50;;;;;;;81.70;43.60;;;;;;;4.73;100.00;102016.94;10460731;28;20064;-58
2022/01/19 18:26:52;;;;;;;77.75;38.97;;;;;;;4.79;100.00;102023.78;10460200;28;20053;-56
2022/01/19 18:31:56;;;;;;;79.30;41.92;;;;;;;4.88;100.00;102033.19;10458625;28;20079;-56
2022/01/19 18:36:59;;;;;;;65.10;35.42;;;;;;;4.88;100.00;102046.16;10458105;28;20124;-59
2022/01/19 18:42:02;;;;;;;76.53;38.67;;;;;;;5.01;100.00;102039.94;10458485;28;20049;-56
2022/01/19 18:47:06;;;;;;;66.55;34.03;;;;;;;5.13;100.00;102054.47;10456205;28;20064;-57
2022/01/19 18:52:08;;;;;;;51.47;25.45;;;;;;;5.12;100.00;102057.94;10457622;28;20056;-56
2022/01/19 18:57:11;;;;;;;48.10;24.05;;;;;;;5.20;100.00;102059.53;10457913;28;20128;-58
2022/01/19 19:02:14;;;;;;;51.22;21.73;;;;;;;5.19;100.00;102056.97;10461057;28;20045;-57
2022/01/19 19:07:16;;;;;;;44.90;18.80;;;;;;;5.31;100.00;102063.72;10457351;28;20444;-56
2022/01/19 19:12:19;;;;;;;48.90;19.65;;;;;;;5.26;100.00;102078.50;10457057;28;20068;-53
2022/01/19 19:17:22;;;;;;;50.30;20.70;;;;;;;5.36;100.00;102072.28;10455742;28;20178;-56
2022/01/19 19:22:25;;;;;;;48.85;19.63;;;;;;;5.28;100.00;102079.31;10456753;28;20055;-58
2022/01/19 19:27:29;;;;;;;63.58;22.30;;;;;;;5.29;100.00;102081.06;10456737;28;20161;-57
2022/01/19 19:32:32;;;;;;;48.35;16.17;;;;;;;5.29;100.00;102088.84;10456492;28;20091;-57
2022/01/19 19:37:34;;;;;;;40.85;12.10;;;;;;;5.25;100.00;102095.81;10457515;28;20067;-58
2022/01/19 19:42:37;;;;;;;54.38;13.57;;;;;;;5.30;100.00;102101.81;10458246;28;20045;-57
2022/01/19 19:47:40;;;;;;;45.00;12.48;;;;;;;5.25;100.00;102106.22;10455032;28;20053;-59
2022/01/19 19:52:43;;;;;;;50.25;12.68;;;;;;;5.19;100.00;102111.50;10456049;28;20501;-54
2022/01/19 19:57:45;;;;;;;44.03;9.50;;;;;;;5.15;100.00;102122.81;10458850;28;20425;-57
2022/01/19 20:02:50;;;;;;;45.85;10.23;;;;;;;5.18;100.00;102134.00;10464500;28;20124;-56
2022/01/19 20:08:14;;;;;;;37.22;8.27;;;;;;;5.08;100.00;102137.59;10462848;28;20512;-56
2022/01/19 20:13:17;;;;;;;36.83;8.32;;;;;;;4.83;100.00;102150.03;10463562;28;20432;-58
2022/01/19 20:18:20;;;;;;;47.88;7.80;;;;;;;4.74;100.00;102155.31;10466611;28;20045;-56
2022/01/19 20:23:23;;;;;;;39.20;7.20;;;;;;;4.73;100.00;102159.66;10462382;28;20056;-57
2022/01/19 20:28:26;;;;;;;45.17;7.88;;;;;;;4.62;100.00;102159.78;10463591;28;20053;-55
2022/01/19 20:33:28;;;;;;;37.15;8.05;;;;;;;4.53;100.00;102172.81;10463136;28;20049;-56
2022/01/19 20:38:38;;;;;;;46.90;8.43;;;;;;;4.50;100.00;102184.97;10462842;28;20049;-54
2022/01/19 20:43:40;;;;;;;46.72;7.40;;;;;;;4.43;100.00;102187.63;10462727;28;20049;-55
2022/01/19 20:48:46;;;;;;;51.05;8.82;;;;;;;4.32;100.00;102188.59;10462916;28;20448;-58
2022/01/19 20:53:49;;;;;;;38.30;6.53;;;;;;;4.23;100.00;102186.94;10462286;28;20049;-57
2022/01/19 20:58:51;;;;;;;47.15;7.00;;;;;;;4.28;100.00;102195.53;10463087;28;20060;-57
2022/01/19 21:03:54;;;;;;;39.75;6.10;;;;;;;4.30;100.00;102200.72;10462006;28;20049;-57
2022/01/19 21:08:56;;;;;;;44.10;7.78;;;;;;;4.36;100.00;102205.84;10461117;28;20072;-55
2022/01/19 21:13:59;;;;;;;46.67;8.13;;;;;;;4.53;100.00;102216.06;10461589;28;20477;-58
2022/01/19 21:19:01;;;;;;;54.38;8.55;;;;;;;4.43;100.00;102225.66;10461275;28;20052;-55
2022/01/19 21:24:04;;;;;;;33.05;6.95;;;;;;;4.45;100.00;102227.38;10461791;28;20049;-55
2022/01/19 21:29:06;;;;;;;39.58;7.45;;;;;;;4.59;100.00;102228.97;10460805;28;20543;-57
2022/01/19 21:34:09;;;;;;;45.65;6.95;;;;;;;4.55;100.00;102241.09;10460807;28;20128;-57
2022/01/19 21:39:11;;;;;;;38.55;7.75;;;;;;;4.47;100.00;102240.31;10460905;28;20041;-52
2022/01/19 21:44:17;;;;;;;43.65;7.18;;;;;;;4.51;100.00;102242.03;10459642;28;20045;-54
2022/01/19 21:49:20;;;;;;;37.80;8.02;;;;;;;4.30;100.00;102235.28;10460396;28;20053;-56
2022/01/19 21:54:22;;;;;;;40.97;7.03;;;;;;;4.21;100.00;102245.72;10460078;28;20059;-56
2022/01/19 21:59:25;;;;;;;30.58;6.97;;;;;;;4.04;100.00;102241.53;10459463;28;20505;-56
2022/01/19 22:04:29;;;;;;;40.88;6.38;;;;;;;4.09;100.00;102250.13;10459543;28;20049;-57
2022/01/19 22:09:33;;;;;;;51.55;7.60;;;;;;;3.99;100.00;102252.81;10458422;28;20451;-57
2022/01/19 22:14:35;;;;;;;36.25;7.28;;;;;;;3.96;100.00;102258.84;10459011;28;20079;-55
2022/01/19 22:19:38;;;;;;;33.97;7.65;;;;;;;3.94;100.00;102262.34;10459334;28;20060;-54
2022/01/19 22:24:43;;;;;;;50.75;6.55;;;;;;;3.80;100.00;102252.03;10458571;28;20045;-56
2022/01/19 22:29:46;;;;;;;43.15;7.72;;;;;;;3.74;100.00;102272.81;10458678;28;20405;-56
2022/01/19 22:34:48;;;;;;;46.97;7.05;;;;;;;3.47;100.00;102267.75;10458323;28;20048;-56
2022/01/19 22:39:51;;;;;;;42.17;6.38;;;;;;;3.45;100.00;102266.03;10458206;28;20045;-56
2022/01/19 22:44:53;;;;;;;40.08;8.43;;;;;;;3.47;100.00;102287.59;10458408;28;20049;-57
2022/01/19 22:49:55;;;;;;;29.45;6.10;;;;;;;3.37;100.00;102284.19;10457641;28;20057;-54
2022/01/19 22:54:58;;;;;;;36.88;6.40;;;;;;;3.37;100.00;102296.28;10458919;28;20053;-58
2022/01/19 23:00:01;;;;;;;43.08;6.78;;;;;;;3.43;100.00;102291.06;10457968;28;20045;-58
2022/01/19 23:05:03;;;;;;;45.10;7.22;;;;;;;3.25;100.00;102285.09;10457285;28;20051;-57
2022/01/19 23:10:06;;;;;;;38.25;6.68;;;;;;;3.21;100.00;102295.44;10457601;28;20068;-56
2022/01/19 23:15:09;;;;;;;36.70;5.50;;;;;;;3.33;100.00;102287.66;10456956;28;20045;-54
2022/01/19 23:20:12;;;;;;;34.88;6.03;;;;;;;3.21;100.00;102293.75;10456851;28;20052;-55
2022/01/19 23:25:15;;;;;;;46.50;6.57;;;;;;;3.28;100.00;102304.94;10456732;28;20048;-58
2022/01/19 23:30:18;;;;;;;31.65;6.03;;;;;;;3.22;100.00;102310.97;10456353;28;20123;-54
2022/01/19 23:35:23;;;;;;;46.72;8.27;;;;;;;3.31;100.00;102307.50;10456842;28;20053;-54
2022/01/19 23:50:52;;;;;;;29.40;5.90;;;;;;;3.19;100.00;102305.81;10456032;28;20485;-59
2022/01/19 23:55:59;;;;;;;42.28;6.88;;;;;;;3.11;100.00;102307.53;10456512;28;20045;-57
